Historyczne dane pomiarowe

Dodano dane terminowe – wersja testowa.

Dane z okresu 1951-2019

Wersja bazy: 1.34 [2019-03-16, lista zmian], aktualizacja planowana na 2019-04-15

Dane meteo z obszaru Polski uzyskane na podstawie danych udostępnionych przez Instytut Meteorologii i Gospodarki Wodnej – Państwowy Instytut Badawczy.

 

Wybierz Datę:    

       

TemperaturaWilgotnośćZachmurzenieWiatrCiśnienieWidzialnośćZjawiska
 Data    tng td wb rh cc ccl cl cm ch dir g1 g2 mslp ppp      
1999-08-11 00:00:00 16.4--- 15.6 15.995wxwx1wx--1011.8 987.5 0.0---wx
1999-08-11 01:00:00 16.2--- 15.4 15.795wxwx1wx--1012.1 987.8----wx
1999-08-11 02:00:00 16.0--- 15.2 15.595wxwx1wx--1012.3 988.0----wx
1999-08-11 03:00:00 15.4--- 14.6 14.995wxwxwx2wx--1012.4 988.0----wx
1999-08-11 04:00:00 15.1--- 14.1 14.594wxwxwxwx1wx--1012.7 988.3----wx
1999-08-11 05:00:00 15.8--- 15.0 15.395wxwxwxwx2wx--1013.5 989.2----wx
1999-08-11 06:00:00 16.6--- 15.8 16.195wxwxwxwx1wx--1013.5 989.2 0.0---wx
1999-08-11 07:00:00 18.4--- 16.4 17.188wxwxwxwx1wx--1013.2 989.1----wx
1999-08-11 08:00:00 19.6--- 16.5 17.682wxwxwxwxwx2wx--1013.2 989.2----wx
1999-08-11 09:00:00 22.4--- 14.4 17.461wxwxwxwx1wx--1012.9 989.1----wx
1999-08-11 10:00:00 22.8--- 16.5 18.767wxwxwxwx1wx--1012.6 988.8----wx
1999-08-11 11:00:00 21.5--- 16.5 18.373wxwxwxwxwx2wx--1012.5 988.6----wx
1999-08-11 12:00:00 22.5--- 15.8 18.266wxwxwxwx3wx--1012.6 988.8 0.0---wx
1999-08-11 13:00:00 24.0--- 16.1 18.961wxwxwx2wx--1012.3 988.6----wx
1999-08-11 14:00:00 24.0--- 15.2 18.458wxwxwx2wx--1012.0 988.4----wx
1999-08-11 15:00:00 19.0--- 16.0 17.183wxwxwx3wx--1012.8 988.7----wx
1999-08-11 16:00:00 20.0--- 15.2 17.074wxwxwx2wx--1012.7 988.7----wx
1999-08-11 17:00:00 19.8--- 15.7 17.277wxwxwx6wx--1013.5 989.5----wx
1999-08-11 18:00:00 17.6--- 16.2 16.791wxwxwxwx5wx--1014.3 990.1 10.0---wxw1
1999-08-11 19:00:00 16.5--- 14.9 15.590wxwxwxwxwx7wx--1015.4 991.1----wx
1999-08-11 20:00:00 16.0--- 14.0 14.888wxwxwxwx5wx--1016.0 991.6----wx
1999-08-11 21:00:00 15.7--- 13.7 14.588wxwxwxwx5wx--1016.1 991.7----wxw1
1999-08-11 22:00:00 15.6--- 13.4 14.387wxwxwx3wx--1016.3 991.9----wx
1999-08-11 23:00:00 15.4--- 13.0 14.086wxwxwx4wx--1016.8 992.3----wx

 

Źródłem pochodzenia danych jest Instytut Meteorologii i Gospodarki Wodnej – Państwowy Instytut Badawczy. Dane Instytutu Meteorologii i Gospodarki Wodnej – Państwowego Instytutu Badawczego zostały przetworzone.

Dane źródłowe można odnaleźć na stronie https://dane.imgw.pl